Archival Weather

Republic

Farmingdale, New York (KFRG)

Report from: Monday, February 19, 2024 1:53 AM EST
Current time: Friday, June 14, 2024 9:09 AM EDT

Current weather – Weather history – Daily summaries
Weather forecast

Temperature1.1°C (34.0°F)
Wind chill-1.8°C (28.8°F)
Dew point-8.9°C (16.0°F)
Winds 5 kts (2.6 m/s, 5.8 mph) West-Northwest (290°)
Visibility10 mi. (16.1 km)
Clouds Sky clear
Altimeter29.96 in.Hg (1015 mB)
Relative humidity47 %
Density altitude-1,684 ft. (-513 m)
Sea-level pressure101.5 kPa (1015 mB, 29.96 in.Hg)
Remarks Fully automated report
Automated weather observing station without precipitation discriminator
Freezing rain sensor not operating
Flight conditions Visual Meteorological Conditions
Raw dataKFRG 190653Z AUTO 29005KT 10SM CLR 01/M09 A2996 RMK AO1 SLP145 T00111089 FZRANO
An error has occurred. This application may no longer respond until reloaded. Reload 🗙